Time;durP1;ratioP1;P1;durP2;ratioP2;P2;SDS_P1;SDS_P2;PMS_P1;PMS_P2;Temp;Humidity;BMP_temperature;BMP_pressure;BME280_temperature;BME280_humidity;BME280_pressure;Samples;Min_cycle;Max_cycle;Signal;HPM_P1;HPM_P2
2024/01/15 00:02:01;;;;;;;14.52;2.38;;;;;;;;;;5055179;28;20048;-69
2024/01/15 00:04:27;;;;;;;13.15;2.17;;;;;;;;;;5057447;28;20147;-69
2024/01/15 00:06:53;;;;;;;10.82;1.75;;;;;;;;;;5052495;28;20045;-69
2024/01/15 00:09:19;;;;;;;8.82;1.98;;;;;;;;;;5055491;28;20044;-69
2024/01/15 00:11:46;;;;;;;11.15;1.90;;;;;;;;;;5055129;28;20148;-69
2024/01/15 00:14:14;;;;;;;12.48;2.40;;;;;;;;;;5055987;28;20110;-69
2024/01/15 00:16:41;;;;;;;11.80;2.08;;;;;;;;;;5052932;28;20648;-69
2024/01/15 00:19:07;;;;;;;10.10;1.90;;;;;;;;;;5052783;28;20048;-69
2024/01/15 00:21:33;;;;;;;9.98;2.17;;;;;;;;;;5056252;28;20036;-69
2024/01/15 00:23:59;;;;;;;10.23;2.10;;;;;;;;;;5056966;28;20048;-69
2024/01/15 00:26:25;;;;;;;11.57;2.00;;;;;;;;;;5055796;28;20045;-68
2024/01/15 00:28:51;;;;;;;7.43;1.88;;;;;;;;;;5051635;28;20043;-69
2024/01/15 00:31:17;;;;;;;10.10;1.70;;;;;;;;;;5035253;28;20033;-69
2024/01/15 00:33:43;;;;;;;10.77;2.60;;;;;;;;;;5056292;28;20037;-69
2024/01/15 00:36:09;;;;;;;11.15;2.10;;;;;;;;;;5056555;28;20041;-69
2024/01/15 00:38:36;;;;;;;19.13;2.88;;;;;;;;;;5056131;28;20056;-69
2024/01/15 00:41:02;;;;;;;11.30;1.90;;;;;;;;;;5055175;28;20449;-69
2024/01/15 00:43:28;;;;;;;16.55;2.40;;;;;;;;;;5063964;28;20500;-69
2024/01/15 00:45:54;;;;;;;13.80;1.92;;;;;;;;;;5055689;28;20091;-69
2024/01/15 00:48:20;;;;;;;8.77;1.40;;;;;;;;;;5050477;28;20565;-69
2024/01/15 00:50:49;;;;;;;7.97;1.65;;;;;;;;;;5056078;28;20104;-67
2024/01/15 00:53:15;;;;;;;7.65;1.52;;;;;;;;;;5057224;28;20056;-67
2024/01/15 00:55:41;;;;;;;10.55;1.67;;;;;;;;;;5056946;28;20056;-66
2024/01/15 00:58:07;;;;;;;8.30;1.80;;;;;;;;;;5057075;28;20128;-68
2024/01/15 01:00:33;;;;;;;11.65;2.00;;;;;;;;;;5081095;22;20044;-70
2024/01/15 01:02:59;;;;;;;6.43;1.75;;;;;;;;;;5057359;28;20048;-69
2024/01/15 01:05:25;;;;;;;12.57;1.83;;;;;;;;;;5057033;28;20417;-69
2024/01/15 01:07:51;;;;;;;13.43;2.15;;;;;;;;;;5052927;28;20037;-69
2024/01/15 01:10:18;;;;;;;6.40;1.70;;;;;;;;;;5051506;28;20487;-69
2024/01/15 01:12:44;;;;;;;10.68;1.90;;;;;;;;;;5053892;28;20056;-69
2024/01/15 01:15:10;;;;;;;9.35;1.60;;;;;;;;;;5054301;28;20048;-69
2024/01/15 01:17:36;;;;;;;10.02;2.13;;;;;;;;;;5053579;28;20218;-69
2024/01/15 01:20:04;;;;;;;14.95;2.15;;;;;;;;;;5054687;28;20048;-69
2024/01/15 01:22:30;;;;;;;11.77;1.70;;;;;;;;;;5051566;28;20057;-69
2024/01/15 01:24:56;;;;;;;12.80;2.10;;;;;;;;;;5053437;28;20091;-69
2024/01/15 01:27:22;;;;;;;11.13;1.95;;;;;;;;;;5050272;28;20043;-69
2024/01/15 01:29:48;;;;;;;11.00;1.98;;;;;;;;;;5052335;28;20045;-70
2024/01/15 01:32:14;;;;;;;8.90;1.70;;;;;;;;;;5053149;28;20048;-70
2024/01/15 01:34:42;;;;;;;11.07;1.92;;;;;;;;;;5054037;28;20059;-70
2024/01/15 01:37:08;;;;;;;18.00;2.28;;;;;;;;;;5053455;28;20037;-70
2024/01/15 01:39:34;;;;;;;9.45;1.98;;;;;;;;;;5052794;28;20440;-70
2024/01/15 01:42:00;;;;;;;12.80;2.20;;;;;;;;;;5058830;28;20040;-70
2024/01/15 01:44:25;;;;;;;10.50;2.08;;;;;;;;;;5053674;28;20045;-70
2024/01/15 01:46:51;;;;;;;11.90;2.17;;;;;;;;;;5053728;28;20161;-70
2024/01/15 01:49:18;;;;;;;10.98;2.55;;;;;;;;;;5050580;28;20033;-70
2024/01/15 01:51:44;;;;;;;6.18;1.55;;;;;;;;;;5053179;28;20491;-70
2024/01/15 01:54:12;;;;;;;8.25;1.88;;;;;;;;;;5052678;28;20407;-70
2024/01/15 01:56:38;;;;;;;9.30;1.58;;;;;;;;;;5051389;28;20041;-70
2024/01/15 01:59:04;;;;;;;3.83;0.98;;;;;;;;;;5053439;28;20037;-70
2024/01/15 02:01:31;;;;;;;7.20;1.23;;;;;;;;;;5053166;28;20048;-70
2024/01/15 02:03:58;;;;;;;10.13;1.63;;;;;;;;;;5053443;28;20053;-70
2024/01/15 02:06:24;;;;;;;5.93;1.48;;;;;;;;;;5060098;28;20121;-70
2024/01/15 02:08:50;;;;;;;3.13;1.13;;;;;;;;;;5053345;28;20080;-70
2024/01/15 02:11:16;;;;;;;3.00;0.85;;;;;;;;;;5052582;28;20429;-70
2024/01/15 02:13:42;;;;;;;4.50;1.00;;;;;;;;;;5053400;28;20044;-70
2024/01/15 02:16:08;;;;;;;6.18;0.88;;;;;;;;;;5063583;28;20103;-70
2024/01/15 02:18:41;;;;;;;5.82;1.20;;;;;;;;;;5052309;28;20155;-70
2024/01/15 02:21:07;;;;;;;6.15;1.40;;;;;;;;;;5052675;28;20080;-70
2024/01/15 02:23:33;;;;;;;2.55;0.73;;;;;;;;;;5052968;28;20084;-70
2024/01/15 02:25:59;;;;;;;5.65;1.00;;;;;;;;;;5057145;28;20098;-70
2024/01/15 02:28:25;;;;;;;5.80;1.27;;;;;;;;;;5053769;28;20559;-70
2024/01/15 02:30:51;;;;;;;4.40;1.08;;;;;;;;;;5052668;28;20063;-70
2024/01/15 02:33:16;;;;;;;8.77;1.90;;;;;;;;;;5051381;28;20077;-70
2024/01/15 02:35:42;;;;;;;7.63;1.30;;;;;;;;;;5050767;28;20491;-70
2024/01/15 02:38:09;;;;;;;7.63;1.42;;;;;;;;;;5052265;28;20047;-70
2024/01/15 02:40:35;;;;;;;7.00;1.48;;;;;;;;;;5053263;28;20114;-70
2024/01/15 02:43:01;;;;;;;7.80;1.67;;;;;;;;;;5052269;28;20041;-70
2024/01/15 02:45:27;;;;;;;8.45;1.20;;;;;;;;;;5051054;28;20470;-70
2024/01/15 02:47:53;;;;;;;5.63;1.23;;;;;;;;;;5052267;28;20049;-70
2024/01/15 02:50:19;;;;;;;8.13;1.23;;;;;;;;;;5051303;28;20049;-70
2024/01/15 02:52:45;;;;;;;8.00;1.77;;;;;;;;;;5053536;28;20040;-70
2024/01/15 02:55:11;;;;;;;4.93;1.10;;;;;;;;;;5050729;28;20052;-70
2024/01/15 02:57:37;;;;;;;6.60;1.75;;;;;;;;;;5054966;28;20124;-70
2024/01/15 03:00:03;;;;;;;7.78;1.20;;;;;;;;;;5050957;28;20522;-70
2024/01/15 03:02:31;;;;;;;5.65;1.20;;;;;;;;;;5050527;28;20040;-70
2024/01/15 03:04:57;;;;;;;5.45;1.10;;;;;;;;;;5051539;28;20268;-70
2024/01/15 03:07:23;;;;;;;8.90;1.20;;;;;;;;;;5050682;28;20033;-70
2024/01/15 03:09:49;;;;;;;8.32;1.90;;;;;;;;;;5052061;28;20102;-70
2024/01/15 03:12:16;;;;;;;6.05;1.48;;;;;;;;;;5052083;28;20063;-70
2024/01/15 03:14:42;;;;;;;4.93;1.45;;;;;;;;;;5052387;28;20036;-70
2024/01/15 03:17:09;;;;;;;5.90;1.23;;;;;;;;;;5052109;28;20510;-70
2024/01/15 03:19:36;;;;;;;4.55;1.00;;;;;;;;;;5050342;28;20472;-70
2024/01/15 03:22:03;;;;;;;7.15;1.40;;;;;;;;;;5051482;28;20572;-70
2024/01/15 03:24:29;;;;;;;6.60;1.83;;;;;;;;;;5052106;28;20040;-70
2024/01/15 03:26:55;;;;;;;6.70;1.40;;;;;;;;;;5052118;28;20167;-70
2024/01/15 03:29:21;;;;;;;11.50;1.35;;;;;;;;;;5046190;28;20132;-70
2024/01/15 03:31:47;;;;;;;7.07;1.50;;;;;;;;;;5048067;28;20540;-70
2024/01/15 03:34:13;;;;;;;7.05;1.40;;;;;;;;;;5048517;28;20511;-70
2024/01/15 03:36:40;;;;;;;6.80;1.30;;;;;;;;;;5052104;28;20079;-70
2024/01/15 03:39:07;;;;;;;11.10;1.55;;;;;;;;;;5052059;28;20044;-70
2024/01/15 03:41:33;;;;;;;5.55;1.38;;;;;;;;;;5051484;28;20055;-70
2024/01/15 03:43:59;;;;;;;6.40;1.38;;;;;;;;;;5046368;28;20036;-70
2024/01/15 03:46:25;;;;;;;7.53;1.15;;;;;;;;;;5051579;28;20083;-70
2024/01/15 03:48:51;;;;;;;8.10;1.45;;;;;;;;;;5051056;28;20579;-70
2024/01/15 03:51:20;;;;;;;5.93;1.05;;;;;;;;;;5051310;28;20047;-70
2024/01/15 03:53:46;;;;;;;5.65;1.20;;;;;;;;;;5049704;28;20044;-70
2024/01/15 03:56:12;;;;;;;5.03;1.17;;;;;;;;;;5051494;28;20036;-70
2024/01/15 03:58:38;;;;;;;4.18;1.10;;;;;;;;;;5050167;28;20095;-70
2024/01/15 04:01:04;;;;;;;6.50;1.40;;;;;;;;;;5048578;28;20048;-70
2024/01/15 04:03:30;;;;;;;6.60;1.33;;;;;;;;;;5049568;28;20049;-70
2024/01/15 04:05:56;;;;;;;3.45;1.02;;;;;;;;;;5049776;28;20098;-70
2024/01/15 04:08:22;;;;;;;6.20;1.30;;;;;;;;;;5050108;28;20045;-70
2024/01/15 04:10:48;;;;;;;6.40;1.40;;;;;;;;;;5049294;28;20128;-70
2024/01/15 04:13:14;;;;;;;6.43;1.45;;;;;;;;;;5050165;28;20033;-70
2024/01/15 04:15:40;;;;;;;6.13;1.23;;;;;;;;;;5053751;28;20135;-70
2024/01/15 04:18:06;;;;;;;8.20;1.58;;;;;;;;;;5049692;28;20045;-70
2024/01/15 04:20:32;;;;;;;12.43;1.73;;;;;;;;;;5047625;28;20152;-70
2024/01/15 04:22:58;;;;;;;8.35;1.63;;;;;;;;;;5049224;28;20116;-70
2024/01/15 04:25:24;;;;;;;8.45;1.73;;;;;;;;;;5050009;28;20037;-70
2024/01/15 04:27:50;;;;;;;7.90;1.80;;;;;;;;;;5043909;28;20392;-70
2024/01/15 04:30:16;;;;;;;14.25;1.83;;;;;;;;;;5048085;28;20116;-70
2024/01/15 04:32:42;;;;;;;8.27;1.75;;;;;;;;;;5048553;28;20045;-70
2024/01/15 04:35:08;;;;;;;10.40;1.75;;;;;;;;;;5049022;28;20048;-70
2024/01/15 04:37:34;;;;;;;11.73;1.67;;;;;;;;;;5049592;28;20048;-70
2024/01/15 04:40:00;;;;;;;10.57;1.98;;;;;;;;;;5053658;28;20093;-70
2024/01/15 04:42:26;;;;;;;7.55;1.60;;;;;;;;;;5050514;28;20037;-70
2024/01/15 04:44:52;;;;;;;10.60;1.30;;;;;;;;;;5052007;28;20041;-70
2024/01/15 04:47:18;;;;;;;15.00;2.17;;;;;;;;;;5054015;28;20178;-70
2024/01/15 04:49:44;;;;;;;9.18;1.42;;;;;;;;;;5054537;28;20514;-70
2024/01/15 04:52:10;;;;;;;7.18;2.10;;;;;;;;;;5060173;28;20037;-70
2024/01/15 04:54:36;;;;;;;7.78;1.67;;;;;;;;;;5054837;28;20037;-70
2024/01/15 04:57:02;;;;;;;15.23;1.92;;;;;;;;;;5055269;28;20048;-70
2024/01/15 04:59:28;;;;;;;9.95;1.90;;;;;;;;;;5053840;28;20483;-70
2024/01/15 05:01:55;;;;;;;12.15;2.15;;;;;;;;;;5052028;28;20284;-70
2024/01/15 05:04:21;;;;;;;12.85;1.45;;;;;;;;;;5053765;28;20036;-70
2024/01/15 05:06:47;;;;;;;12.07;2.33;;;;;;;;;;5054459;28;20049;-70
2024/01/15 05:09:13;;;;;;;6.72;1.50;;;;;;;;;;5053912;28;20094;-70
2024/01/15 05:11:39;;;;;;;8.55;1.70;;;;;;;;;;5053728;28;20045;-70
2024/01/15 05:14:05;;;;;;;10.77;1.67;;;;;;;;;;5053475;28;20040;-70
2024/01/15 05:16:31;;;;;;;8.90;2.03;;;;;;;;;;5055583;28;20045;-70
2024/01/15 05:18:57;;;;;;;11.82;1.55;;;;;;;;;;5054158;28;20392;-70
2024/01/15 05:21:23;;;;;;;10.77;1.83;;;;;;;;;;5053885;28;20052;-70
2024/01/15 05:23:49;;;;;;;11.45;2.35;;;;;;;;;;5054112;28;20560;-70
2024/01/15 05:26:15;;;;;;;10.30;1.88;;;;;;;;;;5052587;28;20063;-70
2024/01/15 05:28:44;;;;;;;7.88;1.67;;;;;;;;;;5054435;28;20037;-70
2024/01/15 05:31:11;;;;;;;6.75;1.55;;;;;;;;;;5055315;28;20182;-70
2024/01/15 05:33:36;;;;;;;8.95;1.45;;;;;;;;;;5051697;28;20107;-70
2024/01/15 05:36:03;;;;;;;10.00;1.63;;;;;;;;;;5056763;28;20097;-70
2024/01/15 05:38:28;;;;;;;5.78;1.48;;;;;;;;;;5053959;28;20120;-70
2024/01/15 05:40:54;;;;;;;12.25;1.70;;;;;;;;;;5053551;28;20167;-70
2024/01/15 05:43:20;;;;;;;9.50;1.63;;;;;;;;;;5053873;28;20052;-70
2024/01/15 05:45:47;;;;;;;10.52;1.85;;;;;;;;;;5053399;28;20041;-70
2024/01/15 05:48:13;;;;;;;8.82;1.63;;;;;;;;;;5053275;28;20518;-70
2024/01/15 05:50:39;;;;;;;13.02;1.83;;;;;;;;;;5053226;28;20048;-70
2024/01/15 05:53:05;;;;;;;8.65;1.80;;;;;;;;;;5053132;28;20044;-70
2024/01/15 05:55:31;;;;;;;8.57;1.92;;;;;;;;;;5056167;28;20033;-70
2024/01/15 05:57:57;;;;;;;8.68;1.73;;;;;;;;;;5056903;28;20414;-70
2024/01/15 06:00:23;;;;;;;11.68;1.88;;;;;;;;;;5053402;28;20052;-70
2024/01/15 06:02:49;;;;;;;10.00;1.58;;;;;;;;;;5055983;28;20044;-70
2024/01/15 06:05:15;;;;;;;7.95;2.05;;;;;;;;;;5050727;28;20657;-70
2024/01/15 06:07:41;;;;;;;8.55;1.77;;;;;;;;;;5044598;28;20406;-70
2024/01/15 06:10:07;;;;;;;10.55;1.98;;;;;;;;;;5048374;28;20048;-70
2024/01/15 06:12:33;;;;;;;8.15;1.80;;;;;;;;;;5048514;28;20041;-70
2024/01/15 06:14:59;;;;;;;9.05;1.45;;;;;;;;;;5049625;28;20116;-70
2024/01/15 06:17:25;;;;;;;6.57;1.80;;;;;;;;;;5049686;28;20148;-70
2024/01/15 06:19:51;;;;;;;10.45;1.45;;;;;;;;;;5046368;28;20041;-70
2024/01/15 06:22:18;;;;;;;6.75;1.50;;;;;;;;;;5048678;28;20075;-70
2024/01/15 06:24:44;;;;;;;10.52;2.30;;;;;;;;;;5050873;28;20048;-70
2024/01/15 06:27:10;;;;;;;7.57;1.40;;;;;;;;;;5050032;28;20395;-70
2024/01/15 06:29:38;;;;;;;13.90;2.40;;;;;;;;;;5047112;28;20127;-70
2024/01/15 06:32:04;;;;;;;9.45;1.50;;;;;;;;;;5050461;28;20047;-70
2024/01/15 06:34:30;;;;;;;8.73;1.80;;;;;;;;;;5050875;28;20056;-70
2024/01/15 06:36:56;;;;;;;4.80;1.38;;;;;;;;;;5050680;28;20049;-70
2024/01/15 06:39:22;;;;;;;10.38;1.48;;;;;;;;;;5052047;28;20504;-70
2024/01/15 06:41:48;;;;;;;8.30;1.55;;;;;;;;;;5050775;28;20041;-70
2024/01/15 06:44:14;;;;;;;11.43;1.70;;;;;;;;;;5052523;28;20041;-70
2024/01/15 06:46:43;;;;;;;11.50;1.90;;;;;;;;;;5050518;28;20522;-70
2024/01/15 06:49:09;;;;;;;10.70;1.52;;;;;;;;;;5052813;28;20044;-70
2024/01/15 06:51:36;;;;;;;10.55;1.95;;;;;;;;;;5052126;28;20124;-70
2024/01/15 06:54:02;;;;;;;6.75;1.40;;;;;;;;;;5051562;28;20037;-70
2024/01/15 06:56:28;;;;;;;5.40;1.25;;;;;;;;;;5052079;28;20450;-70
2024/01/15 06:58:54;;;;;;;8.07;1.60;;;;;;;;;;5052345;28;20065;-70
2024/01/15 07:01:20;;;;;;;9.27;1.58;;;;;;;;;;5060061;22;20045;-68
2024/01/15 07:03:46;;;;;;;7.32;1.80;;;;;;;;;;5017201;28;20095;-65
2024/01/15 07:06:12;;;;;;;6.38;1.63;;;;;;;;;;5040798;28;20036;-66
2024/01/15 07:08:39;;;;;;;7.57;2.42;;;;;;;;;;5034386;28;20559;-67
2024/01/15 07:11:05;;;;;;;7.10;1.70;;;;;;;;;;5044431;22;20041;-68
2024/01/15 07:13:31;;;;;;;8.25;1.75;;;;;;;;;;5047590;28;20132;-67
2024/01/15 07:15:57;;;;;;;4.97;1.33;;;;;;;;;;5037598;28;20037;-68
2024/01/15 07:18:23;;;;;;;9.23;1.65;;;;;;;;;;5056278;28;20070;-68
2024/01/15 07:20:50;;;;;;;9.20;1.60;;;;;;;;;;5047422;28;20131;-68
2024/01/15 07:23:17;;;;;;;8.10;1.80;;;;;;;;;;5049879;28;20041;-68
2024/01/15 07:25:43;;;;;;;6.25;1.55;;;;;;;;;;5043039;28;20094;-69
2024/01/15 07:28:09;;;;;;;7.13;1.85;;;;;;;;;;5042274;28;20049;-68
2024/01/15 07:30:35;;;;;;;8.63;1.50;;;;;;;;;;5051019;28;20051;-68
2024/01/15 07:33:03;;;;;;;7.80;1.55;;;;;;;;;;5047697;28;20048;-68
2024/01/15 07:35:28;;;;;;;7.80;1.42;;;;;;;;;;5042997;28;20077;-68
2024/01/15 07:37:54;;;;;;;9.70;1.75;;;;;;;;;;5041362;28;20122;-68
2024/01/15 07:40:20;;;;;;;10.45;1.73;;;;;;;;;;5044956;28;20496;-68
2024/01/15 07:42:47;;;;;;;5.80;1.38;;;;;;;;;;5039776;28;20052;-68
2024/01/15 07:45:13;;;;;;;6.25;1.70;;;;;;;;;;5061710;28;20110;-68
2024/01/15 07:47:39;;;;;;;7.47;1.45;;;;;;;;;;5044259;28;20052;-68
2024/01/15 07:50:05;;;;;;;9.07;2.10;;;;;;;;;;5046429;28;20098;-68
2024/01/15 07:52:31;;;;;;;6.97;1.80;;;;;;;;;;5051894;28;20123;-68
2024/01/15 07:54:59;;;;;;;6.65;1.63;;;;;;;;;;5051005;28;20552;-68
2024/01/15 07:57:25;;;;;;;9.25;1.67;;;;;;;;;;5052993;28;20041;-68
2024/01/15 07:59:51;;;;;;;8.43;1.80;;;;;;;;;;5046905;28;20079;-68
2024/01/15 08:02:17;;;;;;;10.15;2.95;;;;;;;;;;5038692;28;20076;-68
2024/01/15 08:04:44;;;;;;;6.15;1.77;;;;;;;;;;5046371;28;20397;-68
2024/01/15 08:07:10;;;;;;;9.77;1.80;;;;;;;;;;5052564;28;20492;-68
2024/01/15 08:09:36;;;;;;;6.53;1.42;;;;;;;;;;5046307;28;20062;-68
2024/01/15 08:12:05;;;;;;;11.52;2.92;;;;;;;;;;5064132;28;20037;-68
2024/01/15 08:14:31;;;;;;;5.57;1.40;;;;;;;;;;5049408;28;20097;-68
2024/01/15 08:16:57;;;;;;;10.52;2.20;;;;;;;;;;5039857;28;20102;-68
2024/01/15 08:19:23;;;;;;;9.13;1.52;;;;;;;;;;5046704;28;20442;-68
2024/01/15 08:21:49;;;;;;;7.50;1.52;;;;;;;;;;5056746;28;20052;-68
2024/01/15 08:24:16;;;;;;;10.73;2.03;;;;;;;;;;5045609;28;20504;-68
2024/01/15 08:26:42;;;;;;;10.10;2.00;;;;;;;;;;5054328;28;20052;-68
2024/01/15 08:29:08;;;;;;;9.32;2.08;;;;;;;;;;5047511;28;20056;-68
2024/01/15 08:31:34;;;;;;;14.38;2.17;;;;;;;;;;5048887;28;20431;-69
2024/01/15 08:34:01;;;;;;;8.13;2.00;;;;;;;;;;5055354;28;20132;-68
2024/01/15 08:36:29;;;;;;;10.68;2.03;;;;;;;;;;5041492;28;20060;-68
2024/01/15 08:38:55;;;;;;;8.65;1.45;;;;;;;;;;5047210;28;20042;-68
2024/01/15 08:41:21;;;;;;;10.90;1.48;;;;;;;;;;5056960;28;20105;-68
2024/01/15 08:43:47;;;;;;;7.97;1.80;;;;;;;;;;5054692;28;20048;-68
2024/01/15 08:46:13;;;;;;;9.75;1.80;;;;;;;;;;5047041;28;20515;-66
2024/01/15 08:48:39;;;;;;;12.45;2.35;;;;;;;;;;5048933;28;20041;-66
2024/01/15 08:51:05;;;;;;;11.65;1.98;;;;;;;;;;5066177;28;20039;-66
2024/01/15 08:53:32;;;;;;;11.43;2.25;;;;;;;;;;5069530;28;20091;-66
2024/01/15 08:55:58;;;;;;;9.40;1.77;;;;;;;;;;5065798;28;20036;-66
2024/01/15 08:58:25;;;;;;;8.20;2.03;;;;;;;;;;5046679;28;20037;-67
2024/01/15 09:00:51;;;;;;;13.82;2.17;;;;;;;;;;5059636;28;20063;-66
2024/01/15 09:03:17;;;;;;;7.05;2.17;;;;;;;;;;5063624;28;20127;-66
2024/01/15 09:05:43;;;;;;;10.93;2.00;;;;;;;;;;5059413;28;20119;-66
2024/01/15 09:08:09;;;;;;;12.43;1.95;;;;;;;;;;5048526;28;20036;-66
2024/01/15 09:10:36;;;;;;;9.60;1.70;;;;;;;;;;5050645;28;20531;-66
2024/01/15 09:13:03;;;;;;;5.78;1.92;;;;;;;;;;5055238;28;20077;-66
2024/01/15 09:15:29;;;;;;;6.30;2.22;;;;;;;;;;5056032;28;20072;-66
2024/01/15 09:17:57;;;;;;;11.57;1.60;;;;;;;;;;5051087;28;20098;-67
2024/01/15 09:20:25;;;;;;;14.98;2.38;;;;;;;;;;5041197;28;20121;-67
2024/01/15 09:22:51;;;;;;;9.95;1.75;;;;;;;;;;5053905;28;20048;-67
2024/01/15 09:25:18;;;;;;;8.95;1.65;;;;;;;;;;5056087;28;20598;-66
2024/01/15 09:27:45;;;;;;;8.82;2.05;;;;;;;;;;5072784;28;20040;-66
2024/01/15 09:30:11;;;;;;;9.88;2.00;;;;;;;;;;5055930;28;20366;-70
2024/01/15 09:32:37;;;;;;;12.55;2.22;;;;;;;;;;5055753;28;20399;-73
2024/01/15 09:35:03;;;;;;;8.40;1.52;;;;;;;;;;5056959;28;20384;-67
2024/01/15 09:37:29;;;;;;;11.02;2.13;;;;;;;;;;5074925;28;20086;-67
2024/01/15 09:39:55;;;;;;;9.32;1.60;;;;;;;;;;5074198;28;20420;-68
2024/01/15 09:42:22;;;;;;;7.38;1.70;;;;;;;;;;5056042;28;20049;-67
2024/01/15 09:44:48;;;;;;;7.20;1.67;;;;;;;;;;5056001;28;20044;-68
2024/01/15 09:47:16;;;;;;;8.25;1.55;;;;;;;;;;5073895;28;20051;-68
2024/01/15 09:49:42;;;;;;;5.78;1.48;;;;;;;;;;5056006;28;20037;-68
2024/01/15 09:52:08;;;;;;;4.70;1.58;;;;;;;;;;5055860;28;20408;-68
2024/01/15 09:54:34;;;;;;;9.75;2.05;;;;;;;;;;5056028;28;20048;-68
2024/01/15 09:57:01;;;;;;;8.95;1.45;;;;;;;;;;5039351;28;20412;-68
2024/01/15 09:59:27;;;;;;;7.65;1.58;;;;;;;;;;5055495;28;20385;-68
2024/01/15 10:01:54;;;;;;;6.32;1.25;;;;;;;;;;5039031;28;20408;-68
2024/01/15 10:04:20;;;;;;;9.48;1.60;;;;;;;;;;5055536;28;20044;-67
2024/01/15 10:06:46;;;;;;;9.80;1.60;;;;;;;;;;5039083;28;20056;-67
2024/01/15 10:09:15;;;;;;;8.10;1.40;;;;;;;;;;5055734;28;20377;-67
2024/01/15 10:11:42;;;;;;;11.38;2.08;;;;;;;;;;5055755;28;20036;-68
2024/01/15 10:14:09;;;;;;;10.00;1.40;;;;;;;;;;5055571;28;20048;-68
2024/01/15 10:16:35;;;;;;;10.73;1.67;;;;;;;;;;5055394;28;20042;-68
2024/01/15 10:19:01;;;;;;;3.83;1.40;;;;;;;;;;5055325;28;20094;-67
2024/01/15 10:21:27;;;;;;;6.00;1.73;;;;;;;;;;5055237;28;20076;-68
2024/01/15 10:23:53;;;;;;;6.00;1.80;;;;;;;;;;5055288;28;20045;-64
2024/01/15 10:26:19;;;;;;;9.15;1.50;;;;;;;;;;5054845;28;20045;-65
2024/01/15 10:28:45;;;;;;;6.93;1.63;;;;;;;;;;5054959;28;20412;-64
2024/01/15 10:31:11;;;;;;;11.00;1.70;;;;;;;;;;5054351;28;20125;-63
2024/01/15 10:33:38;;;;;;;9.23;1.60;;;;;;;;;;5080526;28;20040;-65
2024/01/15 10:36:11;;;;;;;3.97;1.27;;;;;;;;;;5073836;28;20044;-64
2024/01/15 10:38:37;;;;;;;8.18;1.35;;;;;;;;;;5051799;28;20093;-60
2024/01/15 10:41:04;;;;;;;6.47;1.30;;;;;;;;;;5040149;28;20048;-64
2024/01/15 10:43:30;;;;;;;5.88;1.35;;;;;;;;;;5046163;28;20048;-65
2024/01/15 10:45:56;;;;;;;9.15;1.77;;;;;;;;;;5038225;28;20041;-64
2024/01/15 10:48:22;;;;;;;8.73;2.10;;;;;;;;;;5040758;28;20386;-65
2024/01/15 10:50:48;;;;;;;8.82;1.55;;;;;;;;;;5059363;28;20393;-64
2024/01/15 10:53:16;;;;;;;8.27;1.30;;;;;;;;;;5041598;28;20048;-65
2024/01/15 10:55:43;;;;;;;5.57;1.20;;;;;;;;;;5040842;28;20075;-65
2024/01/15 10:58:09;;;;;;;6.15;1.45;;;;;;;;;;5054323;28;20046;-65
2024/01/15 11:00:37;;;;;;;4.95;1.30;;;;;;;;;;5071710;28;20041;-64
2024/01/15 11:03:05;;;;;;;7.93;1.63;;;;;;;;;;5053482;28;20142;-65
2024/01/15 11:05:34;;;;;;;5.53;1.13;;;;;;;;;;5051538;28;20109;-66
2024/01/15 11:08:00;;;;;;;2.42;1.00;;;;;;;;;;5077283;28;20044;-65
2024/01/15 11:10:58;;;;;;;4.28;1.00;;;;;;;;;;5071084;28;20507;-65
2024/01/15 11:13:34;;;;;;;4.65;1.33;;;;;;;;;;5029624;28;20057;-66
2024/01/15 11:16:10;;;;;;;6.78;1.20;;;;;;;;;;5053821;28;20044;-65
2024/01/15 11:18:42;;;;;;;5.45;1.08;;;;;;;;;;5063773;28;20044;-65
2024/01/15 11:21:15;;;;;;;4.47;1.10;;;;;;;;;;5053795;28;20048;-63
2024/01/15 11:23:47;;;;;;;6.45;1.10;;;;;;;;;;5069439;28;20051;-65
2024/01/15 11:26:29;;;;;;;4.72;0.88;;;;;;;;;;5053075;28;20381;-65
2024/01/15 11:28:59;;;;;;;4.20;0.93;;;;;;;;;;5048259;28;20041;-65
2024/01/15 11:31:41;;;;;;;2.23;0.70;;;;;;;;;;5053167;28;20116;-65
2024/01/15 11:34:07;;;;;;;;;;;;;;;;;;5042934;28;20048;-65
2024/01/15 11:36:51;;;;;;;4.72;0.90;;;;;;;;;;5040029;28;19916;-64
2024/01/15 11:39:32;;;;;;;4.40;1.00;;;;;;;;;;5047873;28;20119;-65
2024/01/15 11:41:59;;;;;;;4.43;1.00;;;;;;;;;;5058546;28;20670;-65
2024/01/15 11:44:25;;;;;;;3.70;0.95;;;;;;;;;;5047175;28;20032;-65
2024/01/15 11:46:58;;;;;;;3.88;0.80;;;;;;;;;;5052951;28;20048;-65
2024/01/15 11:49:43;;;;;;;2.40;0.98;;;;;;;;;;5070977;28;20142;-64
2024/01/15 11:52:11;;;;;;;2.92;0.82;;;;;;;;;;5044078;28;20045;-65
2024/01/15 11:54:42;;;;;;;2.47;0.63;;;;;;;;;;5058831;28;20052;-65
2024/01/15 11:57:10;;;;;;;2.10;0.70;;;;;;;;;;5073241;28;20033;-65
2024/01/15 11:59:36;;;;;;;2.90;0.80;;;;;;;;;;5064530;28;20075;-65
2024/01/15 12:02:03;;;;;;;3.75;0.73;;;;;;;;;;5052952;28;20126;-65
2024/01/15 12:04:29;;;;;;;7.47;0.82;;;;;;;;;;5053593;28;20044;-65
2024/01/15 12:06:55;;;;;;;3.03;0.77;;;;;;;;;;5070722;28;20094;-65
2024/01/15 12:09:21;;;;;;;2.45;0.80;;;;;;;;;;5053604;28;20048;-65
2024/01/15 12:11:51;;;;;;;4.43;0.98;;;;;;;;;;5047320;28;20106;-65
2024/01/15 12:14:17;;;;;;;4.97;0.70;;;;;;;;;;5050618;28;20048;-66
2024/01/15 12:16:43;;;;;;;3.38;0.90;;;;;;;;;;5070554;28;20465;-64
2024/01/15 12:19:09;;;;;;;1.75;0.80;;;;;;;;;;5053331;28;20052;-65
2024/01/15 12:21:35;;;;;;;3.42;0.90;;;;;;;;;;5070407;28;20095;-66
2024/01/15 12:24:01;;;;;;;3.92;0.80;;;;;;;;;;5047159;28;20033;-66
2024/01/15 12:26:27;;;;;;;1.67;0.80;;;;;;;;;;5058193;28;20382;-65
2024/01/15 12:28:55;;;;;;;3.17;1.00;;;;;;;;;;5057110;28;20120;-65
2024/01/15 12:31:21;;;;;;;2.42;0.73;;;;;;;;;;5045524;28;20119;-65
2024/01/15 12:33:47;;;;;;;2.95;0.75;;;;;;;;;;5044250;28;20129;-65
2024/01/15 12:36:13;;;;;;;2.25;0.70;;;;;;;;;;5040080;28;20033;-64
2024/01/15 12:38:39;;;;;;;3.75;1.20;;;;;;;;;;5044115;28;20052;-64
2024/01/15 12:41:05;;;;;;;2.38;0.90;;;;;;;;;;5063788;28;20036;-64
2024/01/15 12:43:31;;;;;;;3.10;0.88;;;;;;;;;;5052960;28;20067;-64
2024/01/15 12:45:57;;;;;;;3.30;0.88;;;;;;;;;;5069868;28;20040;-65
2024/01/15 12:48:23;;;;;;;4.95;1.25;;;;;;;;;;5072427;28;20028;-65
2024/01/15 12:50:52;;;;;;;2.97;1.00;;;;;;;;;;5067133;28;20041;-65
2024/01/15 12:53:18;;;;;;;6.78;1.13;;;;;;;;;;5072987;28;20067;-65
2024/01/15 12:55:44;;;;;;;3.13;1.00;;;;;;;;;;5053498;28;20040;-65
2024/01/15 12:58:10;;;;;;;3.42;1.23;;;;;;;;;;5055233;28;20250;-65
2024/01/15 13:00:36;;;;;;;1.98;0.88;;;;;;;;;;5062415;28;20037;-65
2024/01/15 13:03:03;;;;;;;2.47;0.73;;;;;;;;;;5065812;28;20129;-65
2024/01/15 13:05:30;;;;;;;2.08;0.90;;;;;;;;;;5070425;28;20052;-64
2024/01/15 13:07:56;;;;;;;5.45;0.70;;;;;;;;;;5050967;28;20044;-65
2024/01/15 13:10:22;;;;;;;2.45;0.90;;;;;;;;;;5099952;22;20046;-70
2024/01/15 13:12:48;;;;;;;3.03;1.17;;;;;;;;;;5033306;28;20446;-70
2024/01/15 13:15:13;;;;;;;3.88;1.00;;;;;;;;;;5018451;28;20033;-70
2024/01/15 13:17:40;;;;;;;5.65;1.48;;;;;;;;;;5041848;28;20041;-70
2024/01/15 13:20:07;;;;;;;4.30;1.10;;;;;;;;;;5013761;28;20132;-70
2024/01/15 13:22:33;;;;;;;4.63;1.13;;;;;;;;;;5014578;28;20447;-70
2024/01/15 13:24:59;;;;;;;6.35;1.30;;;;;;;;;;5010845;28;20087;-70
2024/01/15 13:27:25;;;;;;;5.80;1.10;;;;;;;;;;5018230;28;20510;-70
2024/01/15 13:29:51;;;;;;;5.05;1.25;;;;;;;;;;5018733;28;20041;-70
2024/01/15 13:32:27;;;;;;;2.83;1.13;;;;;;;;;;5014515;28;20042;-70
2024/01/15 13:34:55;;;;;;;4.00;0.90;;;;;;;;;;5014454;28;20084;-70
2024/01/15 13:37:21;;;;;;;6.47;1.00;;;;;;;;;;5014640;28;20502;-70
2024/01/15 13:39:47;;;;;;;4.80;0.98;;;;;;;;;;4995130;28;20045;-70
2024/01/15 13:42:14;;;;;;;6.93;1.33;;;;;;;;;;5014506;28;20042;-70
2024/01/15 13:44:41;;;;;;;6.40;1.55;;;;;;;;;;4999456;28;20045;-70
2024/01/15 13:47:07;;;;;;;4.90;1.00;;;;;;;;;;5014343;28;20045;-70
2024/01/15 13:49:34;;;;;;;7.07;1.10;;;;;;;;;;5020760;28;20163;-70
2024/01/15 13:52:00;;;;;;;4.50;1.08;;;;;;;;;;5013233;28;20527;-70
2024/01/15 13:54:26;;;;;;;7.35;1.20;;;;;;;;;;5014416;28;20400;-70
2024/01/15 13:56:51;;;;;;;4.90;1.45;;;;;;;;;;5012534;28;20040;-70
2024/01/15 13:59:17;;;;;;;4.55;1.35;;;;;;;;;;5013683;28;20744;-70
2024/01/15 14:01:43;;;;;;;4.30;1.25;;;;;;;;;;4996031;28;20415;-70
2024/01/15 14:04:09;;;;;;;3.03;1.45;;;;;;;;;;5011785;28;20072;-70
2024/01/15 14:06:35;;;;;;;5.50;1.42;;;;;;;;;;5012466;28;20038;-70
2024/01/15 14:09:04;;;;;;;6.70;1.58;;;;;;;;;;5013647;28;20030;-70
2024/01/15 14:11:30;;;;;;;4.88;1.65;;;;;;;;;;5013466;28;20050;-70
2024/01/15 14:13:56;;;;;;;6.80;1.40;;;;;;;;;;5019718;28;20451;-70
2024/01/15 14:16:22;;;;;;;8.35;2.92;;;;;;;;;;5012975;28;20041;-70
2024/01/15 14:18:48;;;;;;;7.60;1.73;;;;;;;;;;5012142;28;20046;-70
2024/01/15 14:21:14;;;;;;;13.65;12.30;;;;;;;;;;5010695;28;20053;-70
2024/01/15 14:23:40;;;;;;;10.63;5.18;;;;;;;;;;5015857;28;20053;-70
2024/01/15 14:26:06;;;;;;;9.45;7.38;;;;;;;;;;5013531;28;20030;-70
2024/01/15 14:28:33;;;;;;;14.02;6.88;;;;;;;;;;5013782;28;20420;-70
2024/01/15 14:31:00;;;;;;;8.57;1.52;;;;;;;;;;5012640;28;22056;-70
2024/01/15 14:33:26;;;;;;;9.70;5.10;;;;;;;;;;5011374;28;20100;-70
2024/01/15 14:35:52;;;;;;;7.82;5.00;;;;;;;;;;5011252;28;20400;-70
2024/01/15 14:38:18;;;;;;;5.82;1.77;;;;;;;;;;5012303;28;20038;-70